Time;durP1;ratioP1;P1;durP2;ratioP2;P2;SDS_P1;SDS_P2;PMS_P1;PMS_P2;Temp;Humidity;BMP_temperature;BMP_pressure;BME280_temperature;BME280_humidity;BME280_pressure;Samples;Min_cycle;Max_cycle;Signal;HPM_P1;HPM_P2
2023/07/22 00:00:22;;;;;;;0.73;0.70;;;;;;;35.16;23.58;100981.25;4943340;28;20494;-81
2023/07/22 00:02:50;;;;;;;2.45;0.80;;;;;;;35.21;23.97;100984.47;4943856;29;20040;-79
2023/07/22 00:05:23;;;;;;;2.00;0.70;;;;;;;35.26;23.49;100980.59;4945326;28;20062;-81
2023/07/22 00:07:52;;;;;;;0.77;0.68;;;;;;;35.30;23.29;100971.31;4943706;28;20047;-78
2023/07/22 00:10:21;;;;;;;1.63;0.73;;;;;;;35.33;23.00;100973.81;4948759;28;20051;-79
2023/07/22 00:12:49;;;;;;;0.88;0.60;;;;;;;35.31;24.05;100970.38;4945955;28;20104;-78
2023/07/22 00:15:20;;;;;;;2.28;0.80;;;;;;;35.33;24.41;100971.13;4947785;28;20051;-80
2023/07/22 00:17:49;;;;;;;4.03;0.70;;;;;;;35.32;25.05;100962.16;4943771;28;20557;-77
2023/07/22 00:20:19;;;;;;;2.45;0.68;;;;;;;35.28;23.46;100967.88;4948123;28;20325;-80
2023/07/22 00:22:48;;;;;;;0.70;0.50;;;;;;;35.24;22.85;100960.03;4937347;28;20043;-77
2023/07/22 00:25:18;;;;;;;1.00;0.60;;;;;;;35.25;23.73;100958.19;4950341;28;20054;-79
2023/07/22 00:27:47;;;;;;;2.67;1.08;;;;;;;35.28;23.50;100962.50;4944498;28;20054;-80
2023/07/22 00:30:16;;;;;;;0.73;0.55;;;;;;;35.31;22.75;100963.16;4941427;28;20043;-79
2023/07/22 00:32:46;;;;;;;1.00;0.80;;;;;;;35.31;22.84;100954.22;4938576;28;20294;-78
2023/07/22 00:35:15;;;;;;;1.42;0.77;;;;;;;35.32;23.38;100948.72;4944862;28;20083;-78
2023/07/22 00:37:44;;;;;;;0.82;0.55;;;;;;;35.36;22.71;100946.69;4941869;28;20055;-80
2023/07/22 00:40:13;;;;;;;1.73;0.95;;;;;;;35.37;22.79;100946.59;4942057;28;20055;-79
2023/07/22 00:42:43;;;;;;;0.88;0.50;;;;;;;35.40;22.78;100942.81;4950153;28;20054;-77
2023/07/22 00:45:18;;;;;;;1.77;0.73;;;;;;;35.42;23.12;100944.41;4950510;28;20058;-80
2023/07/22 00:47:48;;;;;;;3.20;0.77;;;;;;;35.44;23.25;100947.00;4951040;28;20556;-79
2023/07/22 00:50:17;;;;;;;0.70;0.60;;;;;;;35.39;23.85;100939.25;4943561;28;20772;-81
2023/07/22 00:52:49;;;;;;;2.03;0.70;;;;;;;35.43;23.51;100943.44;4937958;28;20051;-76
2023/07/22 00:55:24;;;;;;;0.75;0.52;;;;;;;35.44;24.07;100944.31;4944776;28;20088;-77
2023/07/22 00:57:53;;;;;;;1.38;0.77;;;;;;;35.44;23.78;100947.00;4949946;28;20047;-82
2023/07/22 01:00:22;;;;;;;1.67;0.68;;;;;;;35.42;23.56;100948.94;4937177;28;20093;-78
2023/07/22 01:02:52;;;;;;;1.48;0.70;;;;;;;35.36;23.72;100946.69;4947814;28;20050;-82
2023/07/22 01:05:21;;;;;;;1.77;0.70;;;;;;;35.33;24.31;100939.69;4938208;28;20051;-80
2023/07/22 01:07:50;;;;;;;4.13;0.70;;;;;;;35.31;24.04;100935.41;4940232;28;20071;-81
2023/07/22 01:10:18;;;;;;;1.10;0.60;;;;;;;35.30;24.28;100930.97;4949666;28;20286;-81
2023/07/22 01:12:48;;;;;;;1.80;0.63;;;;;;;35.26;24.28;100933.03;4949376;28;20043;-83
2023/07/22 01:15:16;;;;;;;1.67;0.60;;;;;;;35.24;24.02;100927.75;4949456;28;20055;-82
2023/07/22 01:17:45;;;;;;;1.00;0.70;;;;;;;35.21;24.36;100936.06;4945598;28;20036;-80
2023/07/22 01:20:18;;;;;;;1.48;0.50;;;;;;;35.17;24.25;100923.78;4950606;28;20090;-82
2023/07/22 01:22:53;;;;;;;0.75;0.60;;;;;;;35.14;24.41;100929.41;4943397;28;20048;-78
2023/07/22 01:25:23;;;;;;;2.88;0.98;;;;;;;35.13;24.38;100924.13;4954174;28;20743;-82
2023/07/22 01:27:53;;;;;;;2.97;0.80;;;;;;;35.10;24.48;100927.00;4952287;28;20074;-80
2023/07/22 01:30:21;;;;;;;0.60;0.57;;;;;;;35.05;24.16;100930.03;4950424;28;20059;-79
2023/07/22 01:32:50;;;;;;;1.55;0.73;;;;;;;35.00;24.63;100921.41;4953548;28;20388;-79
2023/07/22 01:35:19;;;;;;;2.50;0.70;;;;;;;34.98;24.34;100920.63;4952705;28;20126;-77
2023/07/22 01:37:52;;;;;;;1.42;0.55;;;;;;;34.94;24.52;100919.16;4948018;28;20149;-76
2023/07/22 01:40:23;;;;;;;3.17;0.70;;;;;;;34.87;24.39;100916.03;4953415;28;20063;-79
2023/07/22 01:42:51;;;;;;;2.67;0.60;;;;;;;34.80;24.54;100921.00;4956977;28;20058;-78
2023/07/22 01:45:20;;;;;;;2.58;0.80;;;;;;;34.76;25.20;100922.16;4958385;28;20055;-77
2023/07/22 01:47:49;;;;;;;1.60;0.70;;;;;;;34.71;24.88;100916.25;4948203;28;20047;-77
2023/07/22 01:50:18;;;;;;;1.65;0.88;;;;;;;34.68;24.86;100916.44;4952765;28;20553;-78
2023/07/22 01:52:48;;;;;;;4.35;0.70;;;;;;;34.64;24.77;100909.59;4953685;28;20047;-79
2023/07/22 01:55:19;;;;;;;2.58;0.52;;;;;;;34.61;24.82;100915.16;4947964;28;20058;-79
2023/07/22 01:57:48;;;;;;;1.57;0.77;;;;;;;34.54;25.47;100908.47;4940958;28;20054;-77
2023/07/22 02:00:17;;;;;;;3.42;0.70;;;;;;;34.52;25.31;100907.69;4951703;28;20059;-76
2023/07/22 02:02:45;;;;;;;2.45;0.70;;;;;;;34.45;25.45;100909.94;4950738;28;20073;-77
2023/07/22 02:05:14;;;;;;;1.42;0.70;;;;;;;34.36;25.48;100911.47;4953599;28;20055;-80
2023/07/22 02:07:43;;;;;;;1.63;0.70;;;;;;;34.31;25.77;100912.72;4956315;28;20054;-79
2023/07/22 02:10:13;;;;;;;2.03;0.70;;;;;;;34.25;25.79;100905.06;4962806;28;20101;-77
2023/07/22 02:12:43;;;;;;;2.80;0.60;;;;;;;34.18;25.50;100913.56;4957421;28;20453;-79
2023/07/22 02:15:12;;;;;;;4.45;0.70;;;;;;;34.12;25.60;100910.41;4952363;28;20655;-76
2023/07/22 02:17:41;;;;;;;3.17;1.05;;;;;;;34.01;26.08;100911.94;4949499;28;20067;-78
2023/07/22 02:20:11;;;;;;;6.13;0.90;;;;;;;33.89;25.68;100918.16;4946211;28;20457;-75
2023/07/22 02:22:39;;;;;;;4.13;0.90;;;;;;;33.74;25.42;100914.66;4945364;28;20103;-77
2023/07/22 02:25:10;;;;;;;1.27;0.70;;;;;;;33.65;25.77;100909.91;4945074;28;20166;-78
2023/07/22 02:27:40;;;;;;;2.97;1.10;;;;;;;33.58;26.29;100905.88;4952636;28;20047;-77
2023/07/22 02:30:12;;;;;;;6.32;0.88;;;;;;;33.51;26.47;100907.19;4948790;28;20039;-78
2023/07/22 02:32:41;;;;;;;3.60;0.88;;;;;;;33.47;26.71;100911.91;4933553;28;20050;-78
2023/07/22 02:35:11;;;;;;;2.20;0.90;;;;;;;33.43;26.68;100907.69;4950420;28;20134;-77
2023/07/22 02:37:40;;;;;;;4.80;0.82;;;;;;;33.30;27.15;100894.19;4950786;28;20057;-79
2023/07/22 02:40:11;;;;;;;2.90;1.38;;;;;;;33.28;28.02;100905.97;4949785;28;20055;-77
2023/07/22 02:42:39;;;;;;;1.67;0.53;;;;;;;33.20;27.60;100902.94;4947227;28;20065;-78
2023/07/22 02:45:10;;;;;;;3.22;0.70;;;;;;;33.08;28.00;100909.91;4942229;28;20075;-75
2023/07/22 02:47:39;;;;;;;5.50;2.40;;;;;;;32.91;27.22;100905.56;4937564;28;20047;-79
2023/07/22 02:50:09;;;;;;;2.50;0.75;;;;;;;32.76;28.31;100902.03;4955096;28;20043;-79
2023/07/22 02:52:37;;;;;;;2.78;0.77;;;;;;;32.66;29.05;100903.53;4946278;28;20092;-83
2023/07/22 02:55:10;;;;;;;2.22;0.70;;;;;;;32.58;29.46;100906.69;4941509;28;20051;-81
2023/07/22 02:57:39;;;;;;;4.35;1.55;;;;;;;32.52;31.04;100902.56;4938158;28;20499;-80
2023/07/22 03:00:12;;;;;;;2.63;1.23;;;;;;;32.42;29.27;100897.84;4940868;28;20059;-82
2023/07/22 03:02:41;;;;;;;5.82;0.70;;;;;;;32.27;29.98;100911.16;4948524;28;20051;-79
2023/07/22 03:05:11;;;;;;;1.10;0.60;;;;;;;32.11;28.68;100907.66;4953454;28;20051;-79
2023/07/22 03:07:40;;;;;;;0.68;0.52;;;;;;;31.92;28.39;100911.38;4954375;28;20047;-80
2023/07/22 03:10:10;;;;;;;1.67;0.80;;;;;;;31.79;27.91;100918.38;4947986;28;20055;-75
2023/07/22 03:12:39;;;;;;;1.83;0.50;;;;;;;31.70;27.87;100924.25;4946285;28;20572;-79
2023/07/22 03:15:12;;;;;;;24.27;2.35;;;;;;;31.65;28.63;100920.97;4937371;28;20104;-83
2023/07/22 03:17:41;;;;;;;3.42;0.70;;;;;;;31.59;28.04;100921.31;4944884;28;20161;-78
2023/07/22 03:20:14;;;;;;;2.08;0.82;;;;;;;31.50;30.87;100923.56;4945668;28;20126;-77
2023/07/22 03:22:42;;;;;;;0.50;0.50;;;;;;;31.36;28.63;100923.44;4952169;28;20114;-77
2023/07/22 03:25:12;;;;;;;1.20;0.60;;;;;;;31.25;28.92;100929.38;4950536;28;20114;-76
2023/07/22 03:27:41;;;;;;;2.70;0.70;;;;;;;31.08;29.03;100911.56;4951421;28;20062;-78
2023/07/22 03:30:16;;;;;;;1.23;0.73;;;;;;;31.06;29.87;100929.50;4937087;28;20071;-77
2023/07/22 03:32:45;;;;;;;2.55;0.70;;;;;;;30.96;30.67;100938.94;4948788;28;20132;-79
2023/07/22 03:35:13;;;;;;;1.42;0.60;;;;;;;30.74;29.23;100928.50;4945070;28;20059;-77
2023/07/22 03:37:42;;;;;;;4.55;0.80;;;;;;;30.63;31.45;100939.72;4938387;28;20445;-77
2023/07/22 03:40:17;;;;;;;3.13;0.70;;;;;;;30.48;31.48;100943.19;4936649;28;20091;-77
2023/07/22 03:42:46;;;;;;;0.93;0.68;;;;;;;30.34;31.77;100948.34;4950125;28;20596;-77
2023/07/22 03:45:16;;;;;;;2.13;0.63;;;;;;;30.17;33.04;100944.69;4950566;28;20516;-77
2023/07/22 03:47:46;;;;;;;1.95;0.70;;;;;;;30.05;32.33;100951.50;4949929;28;20050;-78
2023/07/22 03:50:15;;;;;;;2.80;0.88;;;;;;;29.95;33.67;100954.69;4942649;28;20048;-77
2023/07/22 03:52:44;;;;;;;1.80;0.88;;;;;;;29.85;32.45;100956.94;4939958;28;20054;-76
2023/07/22 03:55:12;;;;;;;6.38;0.80;;;;;;;29.71;35.66;100957.59;4948229;28;20055;-77
2023/07/22 03:57:41;;;;;;;1.90;0.57;;;;;;;29.59;34.76;100956.31;4950112;28;20059;-78
2023/07/22 04:00:10;;;;;;;2.45;0.70;;;;;;;29.47;33.18;100948.91;4946804;28;20394;-77
2023/07/22 04:02:41;;;;;;;2.08;0.70;;;;;;;29.35;33.08;100953.00;4951255;28;20051;-77
2023/07/22 04:05:11;;;;;;;3.17;0.95;;;;;;;29.22;33.55;100955.34;4945548;28;20054;-77
2023/07/22 04:07:39;;;;;;;4.10;0.80;;;;;;;29.07;33.44;100957.78;4948504;28;20067;-76
2023/07/22 04:10:09;;;;;;;1.10;0.60;;;;;;;28.92;33.18;100960.22;4953215;28;20114;-78
2023/07/22 04:12:38;;;;;;;2.33;0.80;;;;;;;28.81;33.71;100959.81;4952057;28;20056;-76
2023/07/22 04:15:07;;;;;;;3.30;0.63;;;;;;;28.72;33.89;100954.88;4945052;28;20090;-76
2023/07/22 04:17:35;;;;;;;1.40;0.60;;;;;;;28.64;34.23;100962.34;4946800;28;20421;-77
2023/07/22 04:20:08;;;;;;;2.17;0.70;;;;;;;28.54;33.69;100968.06;4935169;28;20439;-77
2023/07/22 04:22:36;;;;;;;1.52;0.63;;;;;;;28.44;34.03;100969.34;4945817;28;20594;-78
2023/07/22 04:25:06;;;;;;;1.02;0.50;;;;;;;28.37;34.09;100973.19;4936384;28;20494;-78
2023/07/22 04:27:36;;;;;;;1.35;0.70;;;;;;;28.27;34.31;100975.38;4936558;28;20055;-77
2023/07/22 04:30:06;;;;;;;2.80;0.60;;;;;;;28.20;34.49;100979.22;4940884;28;20054;-77
2023/07/22 04:32:35;;;;;;;2.67;0.70;;;;;;;28.08;34.77;100985.84;4949771;28;20047;-77
2023/07/22 04:35:06;;;;;;;2.25;0.80;;;;;;;28.02;34.75;100996.75;4936742;28;20047;-78
2023/07/22 04:37:34;;;;;;;1.83;0.70;;;;;;;27.96;34.67;100997.00;4948709;28;20043;-78
2023/07/22 04:40:06;;;;;;;4.60;0.68;;;;;;;27.86;36.29;101001.81;4936815;28;20116;-78
2023/07/22 04:42:34;;;;;;;2.35;0.70;;;;;;;27.74;35.67;100997.81;4949506;28;20111;-79
2023/07/22 04:45:03;;;;;;;1.48;0.70;;;;;;;27.67;36.70;101000.72;4943680;28;20080;-79
2023/07/22 04:47:32;;;;;;;3.38;0.88;;;;;;;27.56;36.18;101001.16;4951261;28;20051;-79
2023/07/22 04:50:00;;;;;;;2.33;0.75;;;;;;;27.45;36.44;101000.69;4945650;28;20055;-77
2023/07/22 04:52:30;;;;;;;1.55;1.05;;;;;;;27.36;36.56;100996.56;4945123;28;20074;-80
2023/07/22 04:54:59;;;;;;;1.60;0.63;;;;;;;27.26;37.11;101001.38;4939963;28;20222;-79
2023/07/22 04:57:27;;;;;;;1.83;0.50;;;;;;;27.18;38.06;101008.69;4942477;28;20090;-78
2023/07/22 04:59:56;;;;;;;3.63;0.60;;;;;;;27.09;38.19;101001.91;4949909;28;20062;-77
2023/07/22 05:02:25;;;;;;;2.13;0.70;;;;;;;27.02;39.09;101010.16;4956173;28;20047;-76
2023/07/22 05:04:53;;;;;;;2.33;0.70;;;;;;;26.94;38.97;101000.69;4954179;28;20249;-77
2023/07/22 05:07:22;;;;;;;0.77;0.50;;;;;;;26.89;38.51;101013.25;4950527;28;20102;-74
2023/07/22 05:09:53;;;;;;;0.88;0.57;;;;;;;26.83;39.45;101007.28;4950669;28;20053;-76
2023/07/22 05:12:21;;;;;;;1.25;0.52;;;;;;;26.77;39.00;101013.66;4949552;28;20044;-75
2023/07/22 05:14:51;;;;;;;0.93;0.40;;;;;;;26.74;39.10;101013.75;4949457;28;20051;-77
2023/07/22 05:17:20;;;;;;;0.65;0.30;;;;;;;26.72;38.75;101023.56;4952568;28;20074;-76
2023/07/22 05:19:49;;;;;;;1.38;0.30;;;;;;;26.69;38.17;101016.56;4953996;28;20055;-76
2023/07/22 05:22:18;;;;;;;0.70;0.40;;;;;;;26.65;38.28;101014.94;4951080;28;20129;-75
2023/07/22 05:24:46;;;;;;;0.90;0.40;;;;;;;26.64;39.68;101020.28;4953812;28;20517;-79
2023/07/22 05:27:17;;;;;;;1.80;0.50;;;;;;;26.61;39.26;101018.59;4951549;28;20386;-78
2023/07/22 05:29:45;;;;;;;1.75;0.50;;;;;;;26.59;39.25;101012.47;4950202;28;20058;-78
2023/07/22 05:32:14;;;;;;;0.50;0.40;;;;;;;26.54;39.49;101007.31;4948228;28;20526;-79
2023/07/22 05:34:43;;;;;;;0.80;0.40;;;;;;;26.51;39.20;101015.34;4953087;28;20063;-79
2023/07/22 05:37:11;;;;;;;1.63;0.43;;;;;;;26.49;39.40;101018.97;4946130;28;20043;-79
2023/07/22 05:39:40;;;;;;;2.30;0.50;;;;;;;26.44;39.53;101021.78;4952155;28;20066;-81
2023/07/22 05:42:09;;;;;;;0.63;0.40;;;;;;;26.38;39.49;101026.41;4952078;28;20601;-79
2023/07/22 05:44:39;;;;;;;0.38;0.22;;;;;;;26.26;39.68;101027.69;4951216;28;20716;-77
2023/07/22 05:47:08;;;;;;;1.75;0.40;;;;;;;26.16;40.63;101031.50;4951450;28;20043;-78
2023/07/22 05:49:36;;;;;;;0.55;0.38;;;;;;;26.06;40.01;101030.94;4950163;28;20094;-78
2023/07/22 05:52:05;;;;;;;0.70;0.40;;;;;;;25.95;41.36;101033.03;4954830;28;20070;-78
2023/07/22 05:54:34;;;;;;;2.60;0.95;;;;;;;25.85;41.01;101038.59;4952064;28;20059;-78
2023/07/22 05:57:03;;;;;;;2.42;0.70;;;;;;;25.76;41.62;101040.66;4953122;28;20097;-77
2023/07/22 05:59:32;;;;;;;2.65;0.75;;;;;;;25.63;41.71;101045.41;4950758;28;20902;-80
2023/07/22 06:02:02;;;;;;;2.75;0.70;;;;;;;25.50;42.04;101047.56;4950995;28;20062;-80
2023/07/22 06:04:31;;;;;;;1.58;0.70;;;;;;;25.34;42.63;101040.97;4950406;28;20062;-79
2023/07/22 06:07:00;;;;;;;2.20;0.60;;;;;;;25.20;42.85;101055.44;4950903;28;20114;-79
2023/07/22 06:09:29;;;;;;;2.65;0.80;;;;;;;25.02;44.21;101061.19;4953131;28;20067;-79
2023/07/22 06:11:57;;;;;;;1.48;0.90;;;;;;;24.83;44.18;101061.66;4949205;28;20055;-80
2023/07/22 06:14:26;;;;;;;2.03;0.47;;;;;;;24.74;44.69;101058.31;4950556;28;20641;-76
2023/07/22 06:16:55;;;;;;;1.73;0.75;;;;;;;24.65;44.89;101062.09;4952011;28;20059;-79
2023/07/22 06:19:25;;;;;;;0.90;0.60;;;;;;;24.60;45.46;101058.66;4943607;28;20051;-79
2023/07/22 06:21:54;;;;;;;1.55;0.80;;;;;;;24.48;44.81;101069.53;4947960;28;20059;-81
2023/07/22 06:24:22;;;;;;;1.33;0.70;;;;;;;24.29;45.62;101056.72;4951182;28;20052;-78
2023/07/22 06:26:51;;;;;;;1.42;0.70;;;;;;;24.10;46.44;101069.47;4945548;28;20561;-79
2023/07/22 06:29:20;;;;;;;5.50;1.00;;;;;;;23.98;46.93;101065.31;4946981;28;20055;-78
2023/07/22 06:31:48;;;;;;;2.03;0.70;;;;;;;23.84;47.66;101075.28;4953064;28;20047;-80
2023/07/22 06:34:17;;;;;;;2.42;0.80;;;;;;;23.70;47.55;101074.69;4948527;28;20103;-79
2023/07/22 06:36:47;;;;;;;2.95;0.90;;;;;;;23.58;48.19;101070.50;4955041;28;20118;-81
2023/07/22 06:39:16;;;;;;;1.33;0.70;;;;;;;23.53;48.04;101075.88;4946827;28;20051;-77
2023/07/22 06:41:44;;;;;;;0.80;0.50;;;;;;;23.50;48.71;101073.31;4951519;28;20062;-80
2023/07/22 06:44:13;;;;;;;2.63;0.70;;;;;;;23.39;48.56;101075.28;4953249;28;20377;-79
2023/07/22 06:46:41;;;;;;;1.88;0.70;;;;;;;23.30;48.25;101086.00;4952554;28;20066;-80
2023/07/22 06:49:10;;;;;;;1.20;0.70;;;;;;;23.24;48.19;101081.69;4951790;28;20063;-80
2023/07/22 06:51:38;;;;;;;1.85;0.55;;;;;;;23.17;48.56;101080.91;4948958;28;20043;-81
2023/07/22 06:54:08;;;;;;;1.00;0.55;;;;;;;23.11;48.69;101078.41;4943410;28;20055;-80
2023/07/22 06:56:40;;;;;;;2.17;0.80;;;;;;;22.99;49.59;101081.25;4951008;28;20047;-80
2023/07/22 06:59:08;;;;;;;1.42;0.68;;;;;;;22.85;49.70;101085.84;4949934;28;20162;-82
2023/07/22 07:01:37;;;;;;;2.83;0.68;;;;;;;22.79;50.33;101095.59;4950083;28;20425;-80
2023/07/22 07:04:06;;;;;;;1.88;0.60;;;;;;;22.73;51.47;101098.34;4945473;28;20062;-77
2023/07/22 07:06:34;;;;;;;1.17;0.50;;;;;;;22.71;50.50;101108.03;4945802;28;20505;-75
2023/07/22 07:09:04;;;;;;;2.55;0.80;;;;;;;22.71;50.48;101107.16;4940326;28;20043;-77
2023/07/22 07:11:35;;;;;;;2.20;0.70;;;;;;;22.70;50.41;101108.03;4946773;28;20106;-77
2023/07/22 07:14:03;;;;;;;3.03;0.73;;;;;;;22.66;50.50;101114.28;4950126;28;20111;-77
2023/07/22 07:16:33;;;;;;;1.92;0.68;;;;;;;22.57;50.53;101110.00;4949173;28;20051;-79
2023/07/22 07:19:02;;;;;;;1.55;0.70;;;;;;;22.44;51.31;101109.28;4952726;28;20051;-79
2023/07/22 07:21:33;;;;;;;1.00;0.63;;;;;;;22.33;50.71;101108.56;4949901;28;21190;-79
2023/07/22 07:24:02;;;;;;;1.25;0.70;;;;;;;22.27;50.74;101106.91;4952105;28;20071;-79
2023/07/22 07:26:30;;;;;;;2.00;0.60;;;;;;;22.22;52.28;101102.56;4947792;28;20417;-78
2023/07/22 07:29:01;;;;;;;2.72;0.77;;;;;;;22.17;52.45;101105.22;4950596;28;20055;-78
2023/07/22 07:31:36;;;;;;;0.57;0.40;;;;;;;22.12;52.38;101112.34;4947261;28;20059;-79
2023/07/22 07:34:05;;;;;;;1.70;0.70;;;;;;;22.06;53.20;101108.03;4952987;28;20050;-79
2023/07/22 07:36:34;;;;;;;1.55;0.65;;;;;;;21.95;53.55;101112.56;4947076;28;20108;-80
2023/07/22 07:39:03;;;;;;;0.70;0.43;;;;;;;21.88;53.34;101106.47;4946507;28;20497;-79
2023/07/22 07:41:32;;;;;;;2.00;0.60;;;;;;;21.84;53.29;101110.03;4948906;28;20059;-79
2023/07/22 07:44:02;;;;;;;2.53;0.80;;;;;;;21.80;53.34;101110.94;4946659;28;20047;-79
2023/07/22 07:46:31;;;;;;;0.60;0.47;;;;;;;21.76;53.91;101103.97;4950856;28;20133;-79
2023/07/22 07:49:02;;;;;;;2.90;0.52;;;;;;;21.73;53.76;101107.50;4948775;28;20055;-80
2023/07/22 07:51:33;;;;;;;0.80;0.60;;;;;;;21.70;53.82;101106.69;4955503;28;20043;-78
2023/07/22 07:54:04;;;;;;;0.52;0.40;;;;;;;21.57;54.03;101097.16;4958132;28;20071;-77
2023/07/22 07:56:32;;;;;;;1.55;0.85;;;;;;;21.59;54.65;101113.81;4956736;28;20055;-79
2023/07/22 07:59:05;;;;;;;1.00;0.70;;;;;;;21.50;55.16;101105.13;4947355;28;20047;-78
2023/07/22 08:01:33;;;;;;;1.65;0.63;;;;;;;21.45;55.43;101119.22;4942399;28;20055;-78
2023/07/22 08:04:02;;;;;;;1.73;0.50;;;;;;;21.37;54.86;101111.34;4946313;28;20059;-78
2023/07/22 08:06:30;;;;;;;0.63;0.60;;;;;;;21.34;55.91;101114.03;4942447;28;20532;-78
2023/07/22 08:08:59;;;;;;;2.00;0.50;;;;;;;21.32;55.52;101118.44;4935974;28;20047;-78
2023/07/22 08:11:27;;;;;;;3.22;0.60;;;;;;;21.27;55.36;101120.22;4949322;28;20047;-77
2023/07/22 08:14:00;;;;;;;2.97;0.70;;;;;;;21.19;55.69;101122.03;4943832;28;20050;-78
2023/07/22 08:16:30;;;;;;;1.00;0.50;;;;;;;21.07;56.47;101121.28;4953228;28;20051;-80
2023/07/22 08:18:59;;;;;;;1.75;0.50;;;;;;;21.02;56.82;101128.31;4948452;28;20052;-79
2023/07/22 08:21:27;;;;;;;0.80;0.50;;;;;;;20.92;57.54;101121.41;4942702;28;20450;-79
2023/07/22 08:23:57;;;;;;;1.75;0.40;;;;;;;20.83;58.09;101124.97;4945188;28;20150;-77
2023/07/22 08:26:28;;;;;;;0.50;0.40;;;;;;;20.75;57.87;101125.88;4951230;28;20134;-79
2023/07/22 08:28:56;;;;;;;2.83;0.52;;;;;;;20.71;59.82;101125.06;4939498;28;20047;-78
2023/07/22 08:31:25;;;;;;;2.33;0.52;;;;;;;20.65;59.63;101128.56;4950537;28;20051;-81
2023/07/22 08:33:55;;;;;;;0.98;0.38;;;;;;;20.62;58.07;101125.97;4947920;28;20059;-79
2023/07/22 08:36:33;;;;;;;3.50;0.52;;;;;;;20.60;58.34;101125.13;4947573;28;20078;-80
2023/07/22 08:39:02;;;;;;;0.82;0.52;;;;;;;20.53;58.27;101120.75;4949482;28;20712;-79
2023/07/22 08:41:32;;;;;;;0.63;0.50;;;;;;;20.45;57.93;101122.53;4946000;28;20055;-78
2023/07/22 08:44:02;;;;;;;0.80;0.45;;;;;;;20.40;58.54;101119.06;4947282;28;20078;-78
2023/07/22 08:46:31;;;;;;;2.83;0.55;;;;;;;20.40;59.48;101121.69;4950595;28;20066;-80
2023/07/22 08:49:02;;;;;;;0.57;0.40;;;;;;;20.39;59.56;101122.59;4951442;28;20055;-80
2023/07/22 08:51:32;;;;;;;1.10;0.60;;;;;;;20.35;59.57;101119.09;4948268;28;20110;-80
2023/07/22 08:54:02;;;;;;;0.70;0.40;;;;;;;20.32;59.45;101121.75;4945438;28;20047;-79
2023/07/22 08:56:33;;;;;;;0.93;0.57;;;;;;;20.29;59.49;101121.72;4944682;28;20051;-78
2023/07/22 08:59:02;;;;;;;2.13;0.50;;;;;;;20.24;59.39;101129.63;4946916;28;20051;-78
2023/07/22 09:01:31;;;;;;;1.55;0.47;;;;;;;20.20;59.27;101122.66;4949882;28;20043;-79
2023/07/22 09:04:01;;;;;;;0.75;0.32;;;;;;;20.16;59.17;101126.19;4948053;28;20047;-78
2023/07/22 09:06:30;;;;;;;0.77;0.43;;;;;;;20.12;59.71;101132.31;4945788;28;20047;-78
2023/07/22 09:09:00;;;;;;;1.20;0.55;;;;;;;20.05;59.38;101128.84;4944456;28;20047;-81
2023/07/22 09:11:29;;;;;;;3.60;0.63;;;;;;;20.01;59.89;101132.34;4941629;28;20567;-79
2023/07/22 09:13:58;;;;;;;0.63;0.43;;;;;;;19.96;59.73;101128.00;4944016;28;20059;-77
2023/07/22 09:16:29;;;;;;;0.50;0.38;;;;;;;19.91;60.47;101130.66;4944149;28;20071;-79
2023/07/22 09:18:58;;;;;;;1.05;0.65;;;;;;;19.82;60.34;101126.28;4950437;28;20059;-80
2023/07/22 09:21:29;;;;;;;0.73;0.47;;;;;;;19.77;60.81;101128.06;4946429;28;20084;-79
2023/07/22 09:23:57;;;;;;;1.10;0.43;;;;;;;19.73;61.15;101128.94;4949105;28;20047;-80
2023/07/22 09:26:26;;;;;;;0.63;0.43;;;;;;;19.69;61.72;101129.81;4944281;28;20064;-78
2023/07/22 09:28:55;;;;;;;2.85;0.47;;;;;;;19.65;61.42;101133.28;4943645;28;20103;-80
2023/07/22 09:31:28;;;;;;;2.28;0.47;;;;;;;19.59;61.28;101138.56;4946721;28;20054;-78
2023/07/22 09:33:56;;;;;;;0.57;0.40;;;;;;;19.54;61.83;101132.44;4950223;28;20051;-78
2023/07/22 09:36:25;;;;;;;1.02;0.40;;;;;;;19.51;62.60;101135.06;4944178;28;20052;-78
2023/07/22 09:39:16;;;;;;;0.30;0.30;;;;;;;19.45;63.58;101142.09;4949330;28;20509;-80
2023/07/22 09:41:45;;;;;;;0.85;0.47;;;;;;;19.43;64.38;101138.59;4943305;28;20051;-79
2023/07/22 09:44:15;;;;;;;0.77;0.65;;;;;;;19.41;65.55;101139.47;4946864;28;20126;-78
2023/07/22 09:46:48;;;;;;;2.63;0.60;;;;;;;19.34;65.96;101149.09;4952217;28;20732;-78
2023/07/22 09:49:19;;;;;;;0.40;0.40;;;;;;;19.32;66.60;101144.72;4951799;28;20082;-78
2023/07/22 09:51:47;;;;;;;0.95;0.47;;;;;;;19.25;66.85;101147.31;4950403;28;20044;-78
2023/07/22 09:54:17;;;;;;;1.20;0.50;;;;;;;19.22;67.16;101154.34;4951471;28;20166;-79
2023/07/22 09:56:48;;;;;;;0.70;0.50;;;;;;;19.19;67.06;101155.19;4946510;28;20039;-79
2023/07/22 09:59:19;;;;;;;2.50;0.50;;;;;;;19.17;67.33;101156.06;4955891;28;20054;-78
2023/07/22 10:01:50;;;;;;;2.42;0.47;;;;;;;19.12;67.41;101157.81;4945935;28;20091;-79
2023/07/22 10:04:20;;;;;;;1.00;0.60;;;;;;;19.04;67.41;101158.69;4950043;28;20047;-79
2023/07/22 10:06:48;;;;;;;1.65;0.57;;;;;;;18.98;67.63;101161.28;4950870;28;20049;-80
2023/07/22 10:09:20;;;;;;;0.30;0.30;;;;;;;18.92;67.27;101158.69;4943730;28;20139;-80
2023/07/22 10:11:49;;;;;;;3.40;0.73;;;;;;;18.89;67.75;101152.56;4939184;28;20056;-79
2023/07/22 10:14:19;;;;;;;2.42;0.70;;;;;;;18.87;68.40;101157.78;4952649;28;20051;-80
2023/07/22 10:16:48;;;;;;;2.63;0.60;;;;;;;18.85;68.07;101159.53;4942208;28;20044;-79
2023/07/22 10:19:17;;;;;;;1.42;0.40;;;;;;;18.81;68.31;101158.66;4946389;28;20043;-78
2023/07/22 10:21:46;;;;;;;1.58;0.50;;;;;;;18.77;68.35;101156.91;4945180;28;20043;-79
2023/07/22 10:24:15;;;;;;;1.48;0.50;;;;;;;18.74;67.63;101151.63;4951201;28;20569;-79
2023/07/22 10:26:50;;;;;;;1.17;0.40;;;;;;;18.73;67.83;101164.72;4947920;28;20043;-76
2023/07/22 10:29:21;;;;;;;1.35;0.38;;;;;;;18.67;67.98;101148.97;4949678;28;20044;-79
2023/07/22 10:31:52;;;;;;;0.60;0.40;;;;;;;18.62;68.31;101152.47;4960005;28;20458;-80
2023/07/22 10:34:23;;;;;;;0.30;0.30;;;;;;;18.55;68.42;101150.69;4951662;28;20039;-77
2023/07/22 10:36:52;;;;;;;0.75;0.55;;;;;;;18.51;69.13;101148.94;4956024;28;20465;-79
2023/07/22 10:39:30;;;;;;;2.42;0.52;;;;;;;18.48;69.55;101146.28;4950342;28;20047;-79
2023/07/22 10:42:10;;;;;;;0.68;0.30;;;;;;;18.45;69.71;101143.66;4951146;28;20069;-80
2023/07/22 10:44:39;;;;;;;2.83;0.60;;;;;;;18.42;69.73;101144.53;4952725;28;20051;-80
2023/07/22 10:47:09;;;;;;;2.33;0.52;;;;;;;18.38;69.34;101147.16;4948907;28;20058;-79
2023/07/22 10:49:51;;;;;;;0.98;0.60;;;;;;;18.36;70.14;101151.50;4955180;28;20062;-79
2023/07/22 10:52:41;;;;;;;0.40;0.30;;;;;;;18.27;70.88;101147.09;4952057;28;20047;-79
2023/07/22 10:55:17;;;;;;;1.08;0.85;;;;;;;18.27;71.28;101143.59;4952673;28;20047;-79
2023/07/22 10:57:57;;;;;;;0.65;0.45;;;;;;;18.24;71.61;101141.84;4952088;28;20043;-79
2023/07/22 11:00:31;;;;;;;4.65;0.75;;;;;;;18.23;71.93;101141.84;4948176;28;20055;-79
2023/07/22 11:03:21;;;;;;;0.90;0.50;;;;;;;18.17;72.38;101154.03;4951974;28;20050;-78
2023/07/22 11:05:55;;;;;;;1.17;0.60;;;;;;;18.13;73.82;101143.56;4950659;28;20074;-78
2023/07/22 11:08:40;;;;;;;1.25;0.50;;;;;;;18.06;72.92;101147.88;4951550;28;20055;-79
2023/07/22 11:11:12;;;;;;;0.93;0.77;;;;;;;18.02;73.22;101153.97;4956375;28;20062;-78
2023/07/22 11:13:42;;;;;;;0.63;0.43;;;;;;;18.00;72.61;101155.69;4941859;28;20051;-79
2023/07/22 11:16:14;;;;;;;1.77;0.57;;;;;;;17.98;73.33;101153.09;4944149;28;20051;-78
2023/07/22 11:18:43;;;;;;;1.50;0.63;;;;;;;17.96;72.72;101159.19;4952008;28;20050;-78
2023/07/22 11:21:21;;;;;;;1.17;0.50;;;;;;;17.95;73.10;101157.41;4950486;28;20708;-76
2023/07/22 11:23:50;;;;;;;2.15;0.50;;;;;;;17.91;73.04;101164.41;4949849;28;20118;-79
2023/07/22 11:26:27;;;;;;;1.02;0.68;;;;;;;17.88;73.49;101166.09;4952620;28;20051;-78
2023/07/22 11:28:58;;;;;;;0.98;0.60;;;;;;;17.84;72.91;101173.06;4948878;28;20055;-79
2023/07/22 11:31:33;;;;;;;0.65;0.35;;;;;;;17.79;73.68;101167.75;4949736;28;20047;-78
2023/07/22 11:34:02;;;;;;;0.95;0.43;;;;;;;17.76;73.18;101167.75;4954081;28;20532;-77
2023/07/22 11:36:37;;;;;;;1.23;0.63;;;;;;;17.72;73.75;101168.59;4953031;28;20047;-78